臺北終端管制區 - 桃園北區雷達席

METAR RCTP 301600Z 06008KT 9999 FEW020 12/08 Q1020 NOSIG RMK A3012(S)=

站台狀態:Offline
最後更新:2023-01-31 00:00:02